sensor_id;sensor_type;location;lat;lon;timestamp;P1;durP1;ratioP1;P2;durP2;ratioP2
31336;SDS011;22846;42.654;23.314;2023-05-07T00:01:46;2.20;;;1.90;;
31336;SDS011;22846;42.654;23.314;2023-05-07T00:04:12;1.45;;;1.30;;
31336;SDS011;22846;42.654;23.314;2023-05-07T00:06:38;1.70;;;1.45;;
31336;SDS011;22846;42.654;23.314;2023-05-07T00:09:04;1.45;;;1.35;;
31336;SDS011;22846;42.654;23.314;2023-05-07T00:11:30;1.27;;;1.13;;
31336;SDS011;22846;42.654;23.314;2023-05-07T00:13:56;1.92;;;1.00;;
31336;SDS011;22846;42.654;23.314;2023-05-07T00:16:21;1.45;;;1.33;;
31336;SDS011;22846;42.654;23.314;2023-05-07T00:18:46;1.25;;;1.15;;
31336;SDS011;22846;42.654;23.314;2023-05-07T00:21:12;1.30;;;1.10;;
31336;SDS011;22846;42.654;23.314;2023-05-07T00:23:37;1.58;;;1.40;;
31336;SDS011;22846;42.654;23.314;2023-05-07T00:26:03;1.40;;;1.00;;
31336;SDS011;22846;42.654;23.314;2023-05-07T00:28:29;1.30;;;1.20;;
31336;SDS011;22846;42.654;23.314;2023-05-07T00:30:54;1.58;;;1.48;;
31336;SDS011;22846;42.654;23.314;2023-05-07T00:33:20;1.40;;;1.20;;
31336;SDS011;22846;42.654;23.314;2023-05-07T00:35:45;1.80;;;1.30;;
31336;SDS011;22846;42.654;23.314;2023-05-07T00:38:11;1.52;;;1.40;;
31336;SDS011;22846;42.654;23.314;2023-05-07T00:40:37;1.50;;;1.40;;
31336;SDS011;22846;42.654;23.314;2023-05-07T00:43:02;2.20;;;1.75;;
31336;SDS011;22846;42.654;23.314;2023-05-07T00:45:28;1.70;;;1.60;;
31336;SDS011;22846;42.654;23.314;2023-05-07T00:47:58;1.40;;;1.30;;
31336;SDS011;22846;42.654;23.314;2023-05-07T00:50:25;1.77;;;1.48;;
31336;SDS011;22846;42.654;23.314;2023-05-07T00:52:51;1.55;;;1.40;;
31336;SDS011;22846;42.654;23.314;2023-05-07T00:55:17;3.15;;;1.40;;
31336;SDS011;22846;42.654;23.314;2023-05-07T00:57:43;1.95;;;1.60;;
31336;SDS011;22846;42.654;23.314;2023-05-07T01:00:09;1.80;;;1.52;;
31336;SDS011;22846;42.654;23.314;2023-05-07T01:02:37;1.50;;;1.40;;
31336;SDS011;22846;42.654;23.314;2023-05-07T01:05:03;1.63;;;1.30;;
31336;SDS011;22846;42.654;23.314;2023-05-07T01:07:32;1.50;;;1.40;;
31336;SDS011;22846;42.654;23.314;2023-05-07T01:09:59;1.58;;;1.48;;
31336;SDS011;22846;42.654;23.314;2023-05-07T01:12:25;1.50;;;1.40;;
31336;SDS011;22846;42.654;23.314;2023-05-07T01:14:52;1.92;;;1.73;;
31336;SDS011;22846;42.654;23.314;2023-05-07T01:17:18;1.80;;;1.60;;
31336;SDS011;22846;42.654;23.314;2023-05-07T01:19:44;1.63;;;1.50;;
31336;SDS011;22846;42.654;23.314;2023-05-07T01:22:09;1.60;;;1.40;;
31336;SDS011;22846;42.654;23.314;2023-05-07T01:24:39;1.95;;;1.67;;
31336;SDS011;22846;42.654;23.314;2023-05-07T01:27:05;1.67;;;1.50;;
31336;SDS011;22846;42.654;23.314;2023-05-07T01:29:30;2.10;;;1.73;;
31336;SDS011;22846;42.654;23.314;2023-05-07T01:31:59;2.15;;;1.60;;
31336;SDS011;22846;42.654;23.314;2023-05-07T01:34:26;1.75;;;1.60;;
31336;SDS011;22846;42.654;23.314;2023-05-07T01:36:55;1.65;;;1.55;;
31336;SDS011;22846;42.654;23.314;2023-05-07T01:39:25;1.67;;;1.50;;
31336;SDS011;22846;42.654;23.314;2023-05-07T01:41:57;1.95;;;1.70;;
31336;SDS011;22846;42.654;23.314;2023-05-07T01:44:24;1.90;;;1.80;;
31336;SDS011;22846;42.654;23.314;2023-05-07T01:46:51;1.95;;;1.67;;
31336;SDS011;22846;42.654;23.314;2023-05-07T01:49:16;2.17;;;1.50;;
31336;SDS011;22846;42.654;23.314;2023-05-07T01:51:43;3.28;;;1.77;;
31336;SDS011;22846;42.654;23.314;2023-05-07T01:54:09;2.08;;;1.80;;
31336;SDS011;22846;42.654;23.314;2023-05-07T01:56:34;1.90;;;1.70;;
31336;SDS011;22846;42.654;23.314;2023-05-07T01:59:00;1.90;;;1.52;;
31336;SDS011;22846;42.654;23.314;2023-05-07T02:01:27;2.15;;;1.80;;
31336;SDS011;22846;42.654;23.314;2023-05-07T02:03:52;2.72;;;1.70;;
31336;SDS011;22846;42.654;23.314;2023-05-07T02:06:18;2.22;;;1.90;;
31336;SDS011;22846;42.654;23.314;2023-05-07T02:08:44;2.60;;;2.05;;
31336;SDS011;22846;42.654;23.314;2023-05-07T02:11:09;1.65;;;1.52;;
31336;SDS011;22846;42.654;23.314;2023-05-07T02:13:35;1.67;;;1.50;;
31336;SDS011;22846;42.654;23.314;2023-05-07T02:16:01;3.80;;;1.75;;
31336;SDS011;22846;42.654;23.314;2023-05-07T02:18:27;1.85;;;1.67;;
31336;SDS011;22846;42.654;23.314;2023-05-07T02:20:52;2.10;;;1.77;;
31336;SDS011;22846;42.654;23.314;2023-05-07T02:23:18;2.13;;;1.80;;
31336;SDS011;22846;42.654;23.314;2023-05-07T02:25:43;1.90;;;1.60;;
31336;SDS011;22846;42.654;23.314;2023-05-07T02:28:08;2.03;;;1.63;;
31336;SDS011;22846;42.654;23.314;2023-05-07T02:30:34;2.05;;;1.83;;
31336;SDS011;22846;42.654;23.314;2023-05-07T02:32:59;2.20;;;2.00;;
31336;SDS011;22846;42.654;23.314;2023-05-07T02:35:25;2.08;;;1.70;;
31336;SDS011;22846;42.654;23.314;2023-05-07T02:37:51;1.73;;;1.63;;
31336;SDS011;22846;42.654;23.314;2023-05-07T02:40:16;1.70;;;1.60;;
31336;SDS011;22846;42.654;23.314;2023-05-07T02:42:42;2.65;;;1.52;;
31336;SDS011;22846;42.654;23.314;2023-05-07T02:45:07;2.08;;;1.70;;
31336;SDS011;22846;42.654;23.314;2023-05-07T02:47:33;2.60;;;2.10;;
31336;SDS011;22846;42.654;23.314;2023-05-07T02:49:58;2.47;;;1.60;;
31336;SDS011;22846;42.654;23.314;2023-05-07T02:52:24;2.75;;;1.75;;
31336;SDS011;22846;42.654;23.314;2023-05-07T02:54:49;2.33;;;1.80;;
31336;SDS011;22846;42.654;23.314;2023-05-07T02:57:15;2.35;;;1.95;;
31336;SDS011;22846;42.654;23.314;2023-05-07T02:59:41;2.53;;;1.92;;
31336;SDS011;22846;42.654;23.314;2023-05-07T03:02:08;2.00;;;1.90;;
31336;SDS011;22846;42.654;23.314;2023-05-07T03:04:33;2.00;;;1.70;;
31336;SDS011;22846;42.654;23.314;2023-05-07T03:06:59;2.28;;;1.92;;
31336;SDS011;22846;42.654;23.314;2023-05-07T03:09:24;2.10;;;1.80;;
31336;SDS011;22846;42.654;23.314;2023-05-07T03:11:49;2.15;;;1.95;;
31336;SDS011;22846;42.654;23.314;2023-05-07T03:14:15;2.38;;;1.95;;
31336;SDS011;22846;42.654;23.314;2023-05-07T03:16:40;1.65;;;1.50;;
31336;SDS011;22846;42.654;23.314;2023-05-07T03:19:06;2.08;;;1.88;;
31336;SDS011;22846;42.654;23.314;2023-05-07T03:21:31;2.10;;;1.90;;
31336;SDS011;22846;42.654;23.314;2023-05-07T03:23:58;1.90;;;1.75;;
31336;SDS011;22846;42.654;23.314;2023-05-07T03:26:24;2.00;;;1.80;;
31336;SDS011;22846;42.654;23.314;2023-05-07T03:28:50;2.05;;;1.65;;
31336;SDS011;22846;42.654;23.314;2023-05-07T03:31:17;2.10;;;1.90;;
31336;SDS011;22846;42.654;23.314;2023-05-07T03:33:53;1.98;;;1.77;;
31336;SDS011;22846;42.654;23.314;2023-05-07T03:36:19;2.58;;;1.92;;
31336;SDS011;22846;42.654;23.314;2023-05-07T03:38:45;1.95;;;1.60;;
31336;SDS011;22846;42.654;23.314;2023-05-07T03:41:11;2.58;;;1.90;;
31336;SDS011;22846;42.654;23.314;2023-05-07T03:43:36;2.03;;;1.80;;
31336;SDS011;22846;42.654;23.314;2023-05-07T03:46:02;2.38;;;2.13;;
31336;SDS011;22846;42.654;23.314;2023-05-07T03:48:27;2.47;;;2.22;;
31336;SDS011;22846;42.654;23.314;2023-05-07T03:50:52;3.30;;;2.08;;
31336;SDS011;22846;42.654;23.314;2023-05-07T03:53:18;2.50;;;2.28;;
31336;SDS011;22846;42.654;23.314;2023-05-07T03:55:43;2.95;;;2.38;;
31336;SDS011;22846;42.654;23.314;2023-05-07T03:58:09;2.88;;;2.10;;
31336;SDS011;22846;42.654;23.314;2023-05-07T04:00:34;1.90;;;1.70;;
31336;SDS011;22846;42.654;23.314;2023-05-07T04:03:03;2.50;;;1.83;;
31336;SDS011;22846;42.654;23.314;2023-05-07T04:05:29;3.63;;;2.03;;
31336;SDS011;22846;42.654;23.314;2023-05-07T04:07:55;2.80;;;2.20;;
31336;SDS011;22846;42.654;23.314;2023-05-07T04:10:20;2.10;;;1.90;;
31336;SDS011;22846;42.654;23.314;2023-05-07T04:12:45;2.10;;;1.73;;
31336;SDS011;22846;42.654;23.314;2023-05-07T04:15:11;2.92;;;2.00;;
31336;SDS011;22846;42.654;23.314;2023-05-07T04:17:36;3.78;;;2.00;;
31336;SDS011;22846;42.654;23.314;2023-05-07T04:20:02;2.20;;;2.00;;
31336;SDS011;22846;42.654;23.314;2023-05-07T04:22:27;2.42;;;2.03;;
31336;SDS011;22846;42.654;23.314;2023-05-07T04:24:53;2.85;;;2.40;;
31336;SDS011;22846;42.654;23.314;2023-05-07T04:27:18;2.63;;;2.30;;
31336;SDS011;22846;42.654;23.314;2023-05-07T04:29:43;1.98;;;1.77;;
31336;SDS011;22846;42.654;23.314;2023-05-07T04:32:12;2.28;;;1.42;;
31336;SDS011;22846;42.654;23.314;2023-05-07T04:34:38;1.95;;;1.50;;
31336;SDS011;22846;42.654;23.314;2023-05-07T04:37:03;2.83;;;1.90;;
31336;SDS011;22846;42.654;23.314;2023-05-07T04:39:29;2.20;;;1.77;;
31336;SDS011;22846;42.654;23.314;2023-05-07T04:41:54;2.40;;;1.80;;
31336;SDS011;22846;42.654;23.314;2023-05-07T04:44:19;1.80;;;1.70;;
31336;SDS011;22846;42.654;23.314;2023-05-07T04:46:45;2.38;;;1.77;;
31336;SDS011;22846;42.654;23.314;2023-05-07T04:49:10;2.00;;;1.80;;
31336;SDS011;22846;42.654;23.314;2023-05-07T04:51:36;2.03;;;1.52;;
31336;SDS011;22846;42.654;23.314;2023-05-07T04:54:03;2.65;;;1.90;;
31336;SDS011;22846;42.654;23.314;2023-05-07T04:56:28;2.05;;;1.85;;
31336;SDS011;22846;42.654;23.314;2023-05-07T04:58:57;2.15;;;1.80;;
31336;SDS011;22846;42.654;23.314;2023-05-07T05:01:22;1.60;;;1.50;;
31336;SDS011;22846;42.654;23.314;2023-05-07T05:03:48;1.92;;;1.65;;
31336;SDS011;22846;42.654;23.314;2023-05-07T05:06:13;1.73;;;1.63;;
31336;SDS011;22846;42.654;23.314;2023-05-07T05:08:38;2.47;;;1.83;;
31336;SDS011;22846;42.654;23.314;2023-05-07T05:11:04;2.45;;;2.00;;
31336;SDS011;22846;42.654;23.314;2023-05-07T05:13:30;2.42;;;1.85;;
31336;SDS011;22846;42.654;23.314;2023-05-07T05:15:55;3.10;;;2.00;;
31336;SDS011;22846;42.654;23.314;2023-05-07T05:18:21;2.22;;;2.03;;
31336;SDS011;22846;42.654;23.314;2023-05-07T05:20:46;2.28;;;1.83;;
31336;SDS011;22846;42.654;23.314;2023-05-07T05:23:12;2.55;;;1.90;;
31336;SDS011;22846;42.654;23.314;2023-05-07T05:25:37;1.90;;;1.70;;
31336;SDS011;22846;42.654;23.314;2023-05-07T05:28:04;2.75;;;1.70;;
31336;SDS011;22846;42.654;23.314;2023-05-07T05:30:29;1.95;;;1.70;;
31336;SDS011;22846;42.654;23.314;2023-05-07T05:32:54;2.70;;;2.05;;
31336;SDS011;22846;42.654;23.314;2023-05-07T05:35:20;1.70;;;1.60;;
31336;SDS011;22846;42.654;23.314;2023-05-07T05:37:45;2.25;;;2.03;;
31336;SDS011;22846;42.654;23.314;2023-05-07T05:40:11;2.38;;;2.00;;
31336;SDS011;22846;42.654;23.314;2023-05-07T05:42:37;2.55;;;2.13;;
31336;SDS011;22846;42.654;23.314;2023-05-07T05:45:02;1.70;;;1.60;;
31336;SDS011;22846;42.654;23.314;2023-05-07T05:47:28;2.45;;;2.00;;
31336;SDS011;22846;42.654;23.314;2023-05-07T05:49:54;3.15;;;2.17;;
31336;SDS011;22846;42.654;23.314;2023-05-07T05:52:19;2.13;;;1.92;;
31336;SDS011;22846;42.654;23.314;2023-05-07T05:54:45;2.28;;;2.03;;
31336;SDS011;22846;42.654;23.314;2023-05-07T05:57:10;2.13;;;1.90;;
31336;SDS011;22846;42.654;23.314;2023-05-07T05:59:36;3.30;;;2.20;;
31336;SDS011;22846;42.654;23.314;2023-05-07T06:02:01;2.88;;;2.28;;
31336;SDS011;22846;42.654;23.314;2023-05-07T06:04:27;2.15;;;1.92;;
31336;SDS011;22846;42.654;23.314;2023-05-07T06:06:52;2.28;;;2.08;;
31336;SDS011;22846;42.654;23.314;2023-05-07T06:09:18;1.90;;;1.75;;
31336;SDS011;22846;42.654;23.314;2023-05-07T06:11:43;2.05;;;1.85;;
31336;SDS011;22846;42.654;23.314;2023-05-07T06:14:09;2.10;;;1.90;;
31336;SDS011;22846;42.654;23.314;2023-05-07T06:16:34;3.25;;;2.00;;
31336;SDS011;22846;42.654;23.314;2023-05-07T06:19:00;2.65;;;1.90;;
31336;SDS011;22846;42.654;23.314;2023-05-07T06:21:25;2.00;;;1.80;;
31336;SDS011;22846;42.654;23.314;2023-05-07T06:23:51;2.92;;;1.92;;
31336;SDS011;22846;42.654;23.314;2023-05-07T06:26:17;2.50;;;1.85;;
31336;SDS011;22846;42.654;23.314;2023-05-07T06:28:42;2.10;;;1.90;;
31336;SDS011;22846;42.654;23.314;2023-05-07T06:31:13;2.10;;;1.70;;
31336;SDS011;22846;42.654;23.314;2023-05-07T06:33:40;2.17;;;1.98;;
31336;SDS011;22846;42.654;23.314;2023-05-07T06:36:06;1.92;;;1.73;;
31336;SDS011;22846;42.654;23.314;2023-05-07T06:38:31;2.17;;;1.98;;
31336;SDS011;22846;42.654;23.314;2023-05-07T06:40:56;2.60;;;1.92;;
31336;SDS011;22846;42.654;23.314;2023-05-07T06:43:22;2.03;;;1.67;;
31336;SDS011;22846;42.654;23.314;2023-05-07T06:45:48;2.47;;;1.70;;
31336;SDS011;22846;42.654;23.314;2023-05-07T06:48:13;2.15;;;1.80;;
31336;SDS011;22846;42.654;23.314;2023-05-07T06:50:38;2.00;;;1.80;;
31336;SDS011;22846;42.654;23.314;2023-05-07T06:53:04;2.00;;;1.77;;
31336;SDS011;22846;42.654;23.314;2023-05-07T06:55:29;1.73;;;1.63;;
31336;SDS011;22846;42.654;23.314;2023-05-07T06:57:54;2.08;;;1.88;;
31336;SDS011;22846;42.654;23.314;2023-05-07T07:00:20;1.65;;;1.52;;
31336;SDS011;22846;42.654;23.314;2023-05-07T07:02:45;2.03;;;1.70;;
31336;SDS011;22846;42.654;23.314;2023-05-07T07:05:11;3.53;;;1.85;;
31336;SDS011;22846;42.654;23.314;2023-05-07T07:07:36;2.13;;;1.80;;
31336;SDS011;22846;42.654;23.314;2023-05-07T07:10:02;1.88;;;1.67;;
31336;SDS011;22846;42.654;23.314;2023-05-07T07:12:29;1.90;;;1.70;;
31336;SDS011;22846;42.654;23.314;2023-05-07T07:14:54;2.00;;;1.80;;
31336;SDS011;22846;42.654;23.314;2023-05-07T07:17:20;2.35;;;1.52;;
31336;SDS011;22846;42.654;23.314;2023-05-07T07:19:45;1.48;;;1.38;;
31336;SDS011;22846;42.654;23.314;2023-05-07T07:22:11;2.00;;;1.70;;
31336;SDS011;22846;42.654;23.314;2023-05-07T07:24:36;2.58;;;1.40;;
31336;SDS011;22846;42.654;23.314;2023-05-07T07:27:02;1.90;;;1.70;;
31336;SDS011;22846;42.654;23.314;2023-05-07T07:29:27;3.17;;;1.70;;
31336;SDS011;22846;42.654;23.314;2023-05-07T07:31:52;1.85;;;1.67;;
31336;SDS011;22846;42.654;23.314;2023-05-07T07:34:18;1.92;;;1.60;;
31336;SDS011;22846;42.654;23.314;2023-05-07T07:36:43;1.67;;;1.58;;
31336;SDS011;22846;42.654;23.314;2023-05-07T07:39:09;1.95;;;1.65;;
31336;SDS011;22846;42.654;23.314;2023-05-07T07:41:34;2.05;;;1.75;;
31336;SDS011;22846;42.654;23.314;2023-05-07T07:43:59;1.95;;;1.75;;
31336;SDS011;22846;42.654;23.314;2023-05-07T07:46:25;2.10;;;1.65;;
31336;SDS011;22846;42.654;23.314;2023-05-07T07:48:51;2.20;;;1.70;;
31336;SDS011;22846;42.654;23.314;2023-05-07T07:51:17;1.50;;;1.40;;
31336;SDS011;22846;42.654;23.314;2023-05-07T07:53:42;1.77;;;1.60;;
31336;SDS011;22846;42.654;23.314;2023-05-07T07:56:08;2.50;;;1.80;;
31336;SDS011;22846;42.654;23.314;2023-05-07T07:58:33;1.73;;;1.60;;
31336;SDS011;22846;42.654;23.314;2023-05-07T08:01:00;2.08;;;1.58;;
31336;SDS011;22846;42.654;23.314;2023-05-07T08:03:26;1.65;;;1.55;;
31336;SDS011;22846;42.654;23.314;2023-05-07T08:05:51;1.55;;;1.45;;
31336;SDS011;22846;42.654;23.314;2023-05-07T08:08:17;1.63;;;1.52;;
31336;SDS011;22846;42.654;23.314;2023-05-07T08:10:42;1.63;;;1.52;;
31336;SDS011;22846;42.654;23.314;2023-05-07T08:13:08;1.40;;;1.30;;
31336;SDS011;22846;42.654;23.314;2023-05-07T08:15:33;1.90;;;1.60;;
31336;SDS011;22846;42.654;23.314;2023-05-07T08:17:58;1.45;;;1.35;;
31336;SDS011;22846;42.654;23.314;2023-05-07T08:20:25;2.00;;;1.55;;
31336;SDS011;22846;42.654;23.314;2023-05-07T08:22:51;1.50;;;1.40;;
31336;SDS011;22846;42.654;23.314;2023-05-07T08:25:16;1.50;;;1.40;;
31336;SDS011;22846;42.654;23.314;2023-05-07T08:27:42;2.95;;;1.85;;
31336;SDS011;22846;42.654;23.314;2023-05-07T08:30:07;1.75;;;1.48;;
31336;SDS011;22846;42.654;23.314;2023-05-07T08:32:33;1.75;;;1.50;;
31336;SDS011;22846;42.654;23.314;2023-05-07T08:34:59;1.92;;;1.70;;
31336;SDS011;22846;42.654;23.314;2023-05-07T08:37:24;1.70;;;1.60;;
31336;SDS011;22846;42.654;23.314;2023-05-07T08:39:50;1.60;;;1.50;;
31336;SDS011;22846;42.654;23.314;2023-05-07T08:42:16;1.60;;;1.50;;
31336;SDS011;22846;42.654;23.314;2023-05-07T08:44:43;1.90;;;1.55;;
31336;SDS011;22846;42.654;23.314;2023-05-07T08:47:12;2.00;;;1.40;;
31336;SDS011;22846;42.654;23.314;2023-05-07T08:49:37;1.48;;;1.38;;
31336;SDS011;22846;42.654;23.314;2023-05-07T08:52:03;2.67;;;1.50;;
31336;SDS011;22846;42.654;23.314;2023-05-07T08:54:28;1.75;;;1.50;;
31336;SDS011;22846;42.654;23.314;2023-05-07T08:56:55;1.90;;;1.70;;
31336;SDS011;22846;42.654;23.314;2023-05-07T08:59:21;1.88;;;1.40;;
31336;SDS011;22846;42.654;23.314;2023-05-07T09:01:46;1.60;;;1.35;;
31336;SDS011;22846;42.654;23.314;2023-05-07T09:04:12;1.85;;;1.55;;
31336;SDS011;22846;42.654;23.314;2023-05-07T09:06:37;1.73;;;1.20;;
31336;SDS011;22846;42.654;23.314;2023-05-07T09:09:06;1.67;;;1.50;;
31336;SDS011;22846;42.654;23.314;2023-05-07T09:11:32;1.95;;;1.40;;
31336;SDS011;22846;42.654;23.314;2023-05-07T09:13:57;1.60;;;1.50;;
31336;SDS011;22846;42.654;23.314;2023-05-07T09:16:26;1.50;;;1.40;;
31336;SDS011;22846;42.654;23.314;2023-05-07T09:18:54;1.48;;;1.35;;
31336;SDS011;22846;42.654;23.314;2023-05-07T09:21:20;1.50;;;1.40;;
31336;SDS011;22846;42.654;23.314;2023-05-07T09:23:47;2.28;;;1.50;;
31336;SDS011;22846;42.654;23.314;2023-05-07T09:26:15;1.45;;;1.35;;
31336;SDS011;22846;42.654;23.314;2023-05-07T09:28:40;1.67;;;1.30;;
31336;SDS011;22846;42.654;23.314;2023-05-07T09:31:07;1.58;;;1.45;;
31336;SDS011;22846;42.654;23.314;2023-05-07T09:33:33;1.92;;;1.60;;
31336;SDS011;22846;42.654;23.314;2023-05-07T09:36:01;1.45;;;1.35;;
31336;SDS011;22846;42.654;23.314;2023-05-07T09:38:28;1.52;;;1.40;;
31336;SDS011;22846;42.654;23.314;2023-05-07T09:41:06;1.70;;;1.60;;
31336;SDS011;22846;42.654;23.314;2023-05-07T09:43:36;1.40;;;1.30;;
31336;SDS011;22846;42.654;23.314;2023-05-07T09:46:05;1.25;;;1.15;;
31336;SDS011;22846;42.654;23.314;2023-05-07T09:48:38;1.60;;;1.50;;
31336;SDS011;22846;42.654;23.314;2023-05-07T09:51:11;1.42;;;1.30;;
31336;SDS011;22846;42.654;23.314;2023-05-07T09:53:45;1.50;;;1.40;;
31336;SDS011;22846;42.654;23.314;2023-05-07T09:56:12;1.65;;;1.40;;
31336;SDS011;22846;42.654;23.314;2023-05-07T09:58:40;1.90;;;1.50;;
31336;SDS011;22846;42.654;23.314;2023-05-07T10:01:08;1.40;;;1.30;;
31336;SDS011;22846;42.654;23.314;2023-05-07T10:03:36;1.52;;;1.40;;
31336;SDS011;22846;42.654;23.314;2023-05-07T10:06:04;1.65;;;1.55;;
31336;SDS011;22846;42.654;23.314;2023-05-07T10:08:30;1.73;;;1.50;;
31336;SDS011;22846;42.654;23.314;2023-05-07T10:10:56;1.65;;;1.50;;
31336;SDS011;22846;42.654;23.314;2023-05-07T10:13:21;1.60;;;1.50;;
31336;SDS011;22846;42.654;23.314;2023-05-07T10:15:47;1.30;;;1.20;;
31336;SDS011;22846;42.654;23.314;2023-05-07T10:18:13;1.30;;;1.20;;
31336;SDS011;22846;42.654;23.314;2023-05-07T10:20:38;2.10;;;1.52;;
31336;SDS011;22846;42.654;23.314;2023-05-07T10:23:06;1.42;;;1.30;;
31336;SDS011;22846;42.654;23.314;2023-05-07T10:25:33;1.65;;;1.30;;
31336;SDS011;22846;42.654;23.314;2023-05-07T10:28:00;1.38;;;1.23;;
31336;SDS011;22846;42.654;23.314;2023-05-07T10:32:56;1.20;;;1.10;;
31336;SDS011;22846;42.654;23.314;2023-05-07T10:35:30;1.40;;;1.23;;
31336;SDS011;22846;42.654;23.314;2023-05-07T10:38:01;1.27;;;1.17;;
31336;SDS011;22846;42.654;23.314;2023-05-07T10:40:27;1.25;;;1.15;;
31336;SDS011;22846;42.654;23.314;2023-05-07T10:42:56;1.40;;;1.30;;
31336;SDS011;22846;42.654;23.314;2023-05-07T10:45:24;1.27;;;1.10;;
31336;SDS011;22846;42.654;23.314;2023-05-07T10:48:06;1.45;;;1.35;;
31336;SDS011;22846;42.654;23.314;2023-05-07T10:50:38;1.10;;;1.00;;
31336;SDS011;22846;42.654;23.314;2023-05-07T11:25:07;1.75;;;1.30;;
31336;SDS011;22846;42.654;23.314;2023-05-07T11:27:32;1.40;;;1.30;;
31336;SDS011;22846;42.654;23.314;2023-05-07T11:29:58;1.80;;;1.30;;
31336;SDS011;22846;42.654;23.314;2023-05-07T11:32:26;1.45;;;1.35;;
31336;SDS011;22846;42.654;23.314;2023-05-07T11:34:54;1.92;;;1.33;;
31336;SDS011;22846;42.654;23.314;2023-05-07T11:37:21;1.50;;;1.30;;
31336;SDS011;22846;42.654;23.314;2023-05-07T11:39:47;1.75;;;1.38;;
31336;SDS011;22846;42.654;23.314;2023-05-07T11:42:29;1.60;;;1.50;;
31336;SDS011;22846;42.654;23.314;2023-05-07T11:44:56;1.37;;;1.23;;
31336;SDS011;22846;42.654;23.314;2023-05-07T11:47:21;1.40;;;1.30;;
31336;SDS011;22846;42.654;23.314;2023-05-07T11:49:47;1.35;;;1.25;;
31336;SDS011;22846;42.654;23.314;2023-05-07T11:52:14;1.40;;;1.27;;
31336;SDS011;22846;42.654;23.314;2023-05-07T11:54:40;1.50;;;1.40;;
31336;SDS011;22846;42.654;23.314;2023-05-07T11:57:06;1.73;;;1.58;;
31336;SDS011;22846;42.654;23.314;2023-05-07T11:59:39;2.00;;;1.50;;
31336;SDS011;22846;42.654;23.314;2023-05-07T12:02:13;2.10;;;1.27;;
31336;SDS011;22846;42.654;23.314;2023-05-07T12:04:40;1.50;;;1.25;;
31336;SDS011;22846;42.654;23.314;2023-05-07T12:07:05;1.20;;;1.10;;
31336;SDS011;22846;42.654;23.314;2023-05-07T12:09:35;1.60;;;1.50;;
31336;SDS011;22846;42.654;23.314;2023-05-07T12:12:04;1.38;;;1.27;;
31336;SDS011;22846;42.654;23.314;2023-05-07T12:14:30;1.30;;;1.20;;
31336;SDS011;22846;42.654;23.314;2023-05-07T12:16:57;2.00;;;1.40;;
31336;SDS011;22846;42.654;23.314;2023-05-07T12:19:28;1.55;;;1.30;;
31336;SDS011;22846;42.654;23.314;2023-05-07T12:21:55;2.08;;;1.55;;
31336;SDS011;22846;42.654;23.314;2023-05-07T12:24:21;1.20;;;1.10;;
31336;SDS011;22846;42.654;23.314;2023-05-07T12:26:47;1.42;;;1.20;;
31336;SDS011;22846;42.654;23.314;2023-05-07T12:29:13;1.60;;;1.50;;
31336;SDS011;22846;42.654;23.314;2023-05-07T12:31:42;1.38;;;1.00;;
31336;SDS011;22846;42.654;23.314;2023-05-07T12:34:07;1.65;;;1.50;;
31336;SDS011;22846;42.654;23.314;2023-05-07T12:36:36;1.48;;;1.38;;
31336;SDS011;22846;42.654;23.314;2023-05-07T12:39:04;1.30;;;1.20;;
31336;SDS011;22846;42.654;23.314;2023-05-07T12:41:30;1.77;;;1.42;;
31336;SDS011;22846;42.654;23.314;2023-05-07T12:43:56;1.30;;;1.20;;
31336;SDS011;22846;42.654;23.314;2023-05-07T12:46:22;1.40;;;1.30;;
31336;SDS011;22846;42.654;23.314;2023-05-07T12:48:48;1.63;;;1.25;;
31336;SDS011;22846;42.654;23.314;2023-05-07T12:51:14;1.40;;;1.30;;
31336;SDS011;22846;42.654;23.314;2023-05-07T12:53:40;1.50;;;1.40;;
31336;SDS011;22846;42.654;23.314;2023-05-07T12:56:07;1.50;;;1.30;;
31336;SDS011;22846;42.654;23.314;2023-05-07T12:58:33;1.60;;;1.50;;
31336;SDS011;22846;42.654;23.314;2023-05-07T13:01:01;1.60;;;1.50;;
31336;SDS011;22846;42.654;23.314;2023-05-07T13:03:33;1.50;;;1.40;;
31336;SDS011;22846;42.654;23.314;2023-05-07T13:06:00;1.80;;;1.30;;
31336;SDS011;22846;42.654;23.314;2023-05-07T13:08:32;1.50;;;1.40;;
31336;SDS011;22846;42.654;23.314;2023-05-07T13:11:01;2.00;;;1.40;;
31336;SDS011;22846;42.654;23.314;2023-05-07T13:13:29;1.33;;;1.23;;
31336;SDS011;22846;42.654;23.314;2023-05-07T13:15:55;1.30;;;1.20;;
31336;SDS011;22846;42.654;23.314;2023-05-07T13:18:20;1.60;;;1.50;;
31336;SDS011;22846;42.654;23.314;2023-05-07T13:20:46;1.48;;;1.30;;
31336;SDS011;22846;42.654;23.314;2023-05-07T13:23:11;1.38;;;1.27;;
31336;SDS011;22846;42.654;23.314;2023-05-07T13:25:37;1.27;;;1.10;;
31336;SDS011;22846;42.654;23.314;2023-05-07T13:28:02;1.27;;;1.15;;
31336;SDS011;22846;42.654;23.314;2023-05-07T13:30:29;1.45;;;1.30;;
31336;SDS011;22846;42.654;23.314;2023-05-07T13:32:55;1.40;;;1.25;;
31336;SDS011;22846;42.654;23.314;2023-05-07T13:35:21;1.25;;;1.15;;
31336;SDS011;22846;42.654;23.314;2023-05-07T13:37:46;1.38;;;1.27;;
31336;SDS011;22846;42.654;23.314;2023-05-07T13:40:14;1.40;;;1.23;;
31336;SDS011;22846;42.654;23.314;2023-05-07T13:42:40;2.05;;;1.40;;
31336;SDS011;22846;42.654;23.314;2023-05-07T13:45:06;1.40;;;1.30;;
31336;SDS011;22846;42.654;23.314;2023-05-07T13:47:32;1.80;;;1.48;;
31336;SDS011;22846;42.654;23.314;2023-05-07T13:49:57;1.73;;;1.38;;
31336;SDS011;22846;42.654;23.314;2023-05-07T13:52:24;1.63;;;1.40;;
31336;SDS011;22846;42.654;23.314;2023-05-07T13:54:50;1.52;;;1.42;;
31336;SDS011;22846;42.654;23.314;2023-05-07T13:57:17;1.38;;;1.27;;
31336;SDS011;22846;42.654;23.314;2023-05-07T13:59:42;2.15;;;1.30;;
31336;SDS011;22846;42.654;23.314;2023-05-07T14:02:08;1.27;;;1.17;;
31336;SDS011;22846;42.654;23.314;2023-05-07T14:04:34;1.42;;;1.25;;
31336;SDS011;22846;42.654;23.314;2023-05-07T14:06:59;1.30;;;1.15;;
31336;SDS011;22846;42.654;23.314;2023-05-07T14:09:25;1.60;;;1.27;;
31336;SDS011;22846;42.654;23.314;2023-05-07T14:11:50;1.30;;;1.20;;
31336;SDS011;22846;42.654;23.314;2023-05-07T14:14:17;1.92;;;1.23;;
31336;SDS011;22846;42.654;23.314;2023-05-07T14:16:43;1.40;;;1.30;;
31336;SDS011;22846;42.654;23.314;2023-05-07T14:19:10;1.38;;;1.27;;
31336;SDS011;22846;42.654;23.314;2023-05-07T14:21:36;1.63;;;1.50;;
31336;SDS011;22846;42.654;23.314;2023-05-07T14:24:01;1.48;;;1.38;;
31336;SDS011;22846;42.654;23.314;2023-05-07T14:26:27;1.52;;;1.42;;
31336;SDS011;22846;42.654;23.314;2023-05-07T14:28:52;1.30;;;1.20;;
31336;SDS011;22846;42.654;23.314;2023-05-07T14:31:20;1.42;;;1.30;;
31336;SDS011;22846;42.654;23.314;2023-05-07T14:33:47;1.63;;;1.50;;
31336;SDS011;22846;42.654;23.314;2023-05-07T14:36:14;1.30;;;1.20;;
31336;SDS011;22846;42.654;23.314;2023-05-07T14:38:40;1.50;;;1.40;;
31336;SDS011;22846;42.654;23.314;2023-05-07T14:41:05;1.38;;;1.27;;
31336;SDS011;22846;42.654;23.314;2023-05-07T14:43:31;1.60;;;1.42;;
31336;SDS011;22846;42.654;23.314;2023-05-07T14:45:56;1.65;;;1.30;;
31336;SDS011;22846;42.654;23.314;2023-05-07T14:48:22;1.20;;;1.10;;
31336;SDS011;22846;42.654;23.314;2023-05-07T14:50:47;1.48;;;1.38;;
31336;SDS011;22846;42.654;23.314;2023-05-07T14:53:13;1.50;;;1.40;;
31336;SDS011;22846;42.654;23.314;2023-05-07T14:55:38;2.15;;;1.40;;
31336;SDS011;22846;42.654;23.314;2023-05-07T14:58:04;1.45;;;1.30;;
31336;SDS011;22846;42.654;23.314;2023-05-07T15:00:30;1.45;;;1.35;;
31336;SDS011;22846;42.654;23.314;2023-05-07T15:03:00;1.40;;;1.23;;